Time;durP1;ratioP1;P1;durP2;ratioP2;P2;SDS_P1;SDS_P2;PMS_P1;PMS_P2;Temp;Humidity;BMP_temperature;BMP_pressure;BME280_temperature;BME280_humidity;BME280_pressure;Samples;Min_cycle;Max_cycle;Signal;HPM_P1;HPM_P2
2022/03/27 00:02:55;;;;;;;32.30;14.25;;;;;;;;;;6277705;28;20358;-83
2022/03/27 00:05:55;;;;;;;32.35;16.30;;;;;;;;;;6277340;28;20021;-83
2022/03/27 00:08:55;;;;;;;26.80;14.40;;;;;;;;;;6293780;28;20353;-83
2022/03/27 00:11:55;;;;;;;27.23;12.57;;;;;;;;;;6277517;28;20043;-83
2022/03/27 00:14:56;;;;;;;33.65;13.18;;;;;;;;;;6276442;28;20090;-83
2022/03/27 00:17:56;;;;;;;33.17;14.07;;;;;;;;;;6276661;28;20032;-83
2022/03/27 00:20:56;;;;;;;25.85;10.68;;;;;;;;;;6295105;28;20025;-83
2022/03/27 00:23:56;;;;;;;27.80;10.80;;;;;;;;;;6275107;28;20021;-83
2022/03/27 00:26:57;;;;;;;24.70;8.80;;;;;;;;;;6286302;28;20286;-83
2022/03/27 00:29:57;;;;;;;22.45;9.57;;;;;;;;;;6294996;28;20023;-83
2022/03/27 00:32:57;;;;;;;27.15;11.38;;;;;;;;;;6294994;28;20025;-83
2022/03/27 00:35:58;;;;;;;21.73;7.95;;;;;;;;;;6276498;28;20024;-83
2022/03/27 00:38:58;;;;;;;30.58;10.02;;;;;;;;;;6295185;28;20035;-83
2022/03/27 00:41:59;;;;;;;25.33;10.02;;;;;;;;;;6278008;28;20056;-83
2022/03/27 00:44:59;;;;;;;19.20;6.97;;;;;;;;;;6296869;28;20045;-83
2022/03/27 00:47:59;;;;;;;19.83;7.30;;;;;;;;;;6277579;28;20394;-83
2022/03/27 00:51:00;;;;;;;22.60;8.05;;;;;;;;;;6295488;28;20865;-83
2022/03/27 00:54:00;;;;;;;23.77;7.68;;;;;;;;;;6295286;28;20012;-83
2022/03/27 00:57:01;;;;;;;20.83;8.93;;;;;;;;;;6294505;28;20112;-83
2022/03/27 01:00:01;;;;;;;20.92;7.63;;;;;;;;;;6291257;28;20383;-83
2022/03/27 01:03:02;;;;;;;25.80;8.98;;;;;;;;;;6296604;28;20016;-83
2022/03/27 01:06:03;;;;;;;10.23;4.60;;;;;;;;;;6276150;28;20107;-83
2022/03/27 01:12:27;;;;;;;23.45;7.32;;;;;;;;;;6270807;28;20737;-82
2022/03/27 01:15:31;;;;;;;28.13;6.88;;;;;;;;;;6270236;28;20023;-83
2022/03/27 01:18:31;;;;;;;27.50;7.35;;;;;;;;;;6272319;28;20028;-83
2022/03/27 01:21:33;;;;;;;25.53;7.20;;;;;;;;;;6294326;28;20029;-83
2022/03/27 01:24:34;;;;;;;22.33;7.90;;;;;;;;;;6272067;28;20295;-82
2022/03/27 01:27:34;;;;;;;18.88;5.68;;;;;;;;;;6263017;28;20016;-82
2022/03/27 01:30:35;;;;;;;27.70;7.10;;;;;;;;;;6291213;28;20463;-83
2022/03/27 01:33:35;;;;;;;23.55;9.93;;;;;;;;;;6276810;28;20396;-82
2022/03/27 01:36:36;;;;;;;27.70;10.18;;;;;;;;;;6277156;28;20028;-83
2022/03/27 01:39:37;;;;;;;17.98;5.35;;;;;;;;;;6298344;28;20028;-82
2022/03/27 01:42:37;;;;;;;17.20;4.18;;;;;;;;;;6297336;28;20111;-83
2022/03/27 01:45:37;;;;;;;16.08;2.53;;;;;;;;;;6300107;28;20071;-83
2022/03/27 01:48:37;;;;;;;16.98;3.00;;;;;;;;;;6278312;28;20020;-83
2022/03/27 01:51:38;;;;;;;13.48;2.75;;;;;;;;;;6310816;28;20019;-83
2022/03/27 01:54:39;;;;;;;15.23;4.15;;;;;;;;;;6282131;28;20325;-83
2022/03/27 01:57:41;;;;;;;8.27;2.22;;;;;;;;;;6296203;28;20028;-83
2022/03/27 02:00:42;;;;;;;16.02;3.60;;;;;;;;;;6297027;28;20310;-83
2022/03/27 02:03:42;;;;;;;11.00;3.17;;;;;;;;;;6312879;28;20027;-82
2022/03/27 02:06:43;;;;;;;14.68;3.83;;;;;;;;;;6318541;28;20032;-82
2022/03/27 02:09:44;;;;;;;7.68;2.53;;;;;;;;;;6287486;28;20024;-83
2022/03/27 02:12:44;;;;;;;10.18;2.90;;;;;;;;;;6243478;28;20049;-83
2022/03/27 02:15:46;;;;;;;16.77;4.35;;;;;;;;;;6241807;28;20029;-82
2022/03/27 02:18:46;;;;;;;12.70;3.17;;;;;;;;;;6242926;28;20025;-83
2022/03/27 02:21:46;;;;;;;13.65;4.45;;;;;;;;;;6243126;28;20075;-83
2022/03/27 02:24:46;;;;;;;12.30;5.25;;;;;;;;;;6233007;28;20033;-82
2022/03/27 02:27:47;;;;;;;16.45;4.70;;;;;;;;;;6235560;28;20022;-82
2022/03/27 02:30:47;;;;;;;17.60;4.40;;;;;;;;;;6246411;28;20021;-83
2022/03/27 02:33:48;;;;;;;14.70;4.50;;;;;;;;;;6246573;28;20037;-82
2022/03/27 02:36:49;;;;;;;24.97;6.03;;;;;;;;;;6245867;28;20376;-82
2022/03/27 02:39:49;;;;;;;17.20;5.72;;;;;;;;;;6247601;28;20272;-83
2022/03/27 02:42:49;;;;;;;18.80;5.97;;;;;;;;;;6239116;28;20025;-82
2022/03/27 02:45:50;;;;;;;12.52;3.15;;;;;;;;;;6245561;28;20038;-83
2022/03/27 02:48:50;;;;;;;16.13;3.33;;;;;;;;;;6245565;28;20033;-82
2022/03/27 02:51:51;;;;;;;12.63;3.67;;;;;;;;;;6247126;28;20542;-82
2022/03/27 02:54:51;;;;;;;7.43;3.03;;;;;;;;;;6247152;28;20443;-83
2022/03/27 02:57:52;;;;;;;11.60;3.15;;;;;;;;;;6244745;28;20325;-83
2022/03/27 03:00:53;;;;;;;6.90;2.67;;;;;;;;;;6246571;28;20036;-83
2022/03/27 03:03:53;;;;;;;9.98;3.75;;;;;;;;;;6245398;28;20747;-82
2022/03/27 03:06:53;;;;;;;7.20;3.08;;;;;;;;;;6244942;28;20036;-83
2022/03/27 03:09:54;;;;;;;10.38;3.35;;;;;;;;;;6246302;28;20029;-82
2022/03/27 03:12:56;;;;;;;6.68;2.33;;;;;;;;;;6245383;28;20056;-83
2022/03/27 03:15:57;;;;;;;11.88;3.85;;;;;;;;;;6245204;28;20029;-83
2022/03/27 03:18:57;;;;;;;12.15;4.18;;;;;;;;;;6235606;28;20026;-83
2022/03/27 03:21:58;;;;;;;14.15;4.43;;;;;;;;;;6222347;28;20029;-83
2022/03/27 03:24:58;;;;;;;10.48;4.50;;;;;;;;;;6231221;28;20049;-83
2022/03/27 03:27:58;;;;;;;8.00;3.55;;;;;;;;;;6246144;28;20038;-83
2022/03/27 03:30:58;;;;;;;10.88;3.60;;;;;;;;;;6244816;28;20017;-83
2022/03/27 03:33:59;;;;;;;10.90;3.30;;;;;;;;;;6246739;28;20467;-83
2022/03/27 03:36:59;;;;;;;7.90;3.17;;;;;;;;;;6244369;28;20029;-83
2022/03/27 03:39:59;;;;;;;7.72;4.53;;;;;;;;;;6246396;28;20033;-83
2022/03/27 03:43:00;;;;;;;10.43;3.75;;;;;;;;;;6244314;28;20036;-82
2022/03/27 03:46:00;;;;;;;7.13;3.80;;;;;;;;;;6244417;28;20447;-82
2022/03/27 03:49:00;;;;;;;8.68;3.65;;;;;;;;;;6244253;28;20033;-82
2022/03/27 03:52:00;;;;;;;8.65;4.35;;;;;;;;;;6245791;28;20022;-82
2022/03/27 03:55:01;;;;;;;14.57;4.63;;;;;;;;;;6244032;28;20066;-82
2022/03/27 03:58:02;;;;;;;8.88;2.97;;;;;;;;;;6238241;28;20024;-82
2022/03/27 04:01:03;;;;;;;13.73;3.65;;;;;;;;;;6231384;28;20498;-82
2022/03/27 04:04:03;;;;;;;12.75;3.80;;;;;;;;;;6244262;28;20033;-81
2022/03/27 04:07:04;;;;;;;17.27;4.40;;;;;;;;;;6243861;28;20029;-82
2022/03/27 04:10:04;;;;;;;8.27;4.47;;;;;;;;;;6245607;28;20575;-82
2022/03/27 04:13:05;;;;;;;13.07;4.15;;;;;;;;;;6295221;28;20024;-81
2022/03/27 04:16:05;;;;;;;8.82;3.60;;;;;;;;;;6276926;28;20021;-81
2022/03/27 04:19:05;;;;;;;11.18;4.30;;;;;;;;;;6293250;28;20028;-82
2022/03/27 04:22:05;;;;;;;9.98;3.67;;;;;;;;;;6285312;28;20025;-81
2022/03/27 04:25:06;;;;;;;15.55;3.17;;;;;;;;;;6281442;28;20033;-81
2022/03/27 04:28:08;;;;;;;7.03;3.33;;;;;;;;;;6293829;28;20028;-81
2022/03/27 04:31:08;;;;;;;9.65;3.90;;;;;;;;;;6266375;28;20028;-82
2022/03/27 04:34:08;;;;;;;11.30;3.80;;;;;;;;;;6269248;28;20028;-82
2022/03/27 04:37:08;;;;;;;15.10;3.97;;;;;;;;;;6269196;28;20506;-82
2022/03/27 04:40:10;;;;;;;11.57;4.20;;;;;;;;;;6253911;28;20024;-82
2022/03/27 04:43:11;;;;;;;13.15;5.00;;;;;;;;;;6281152;28;20021;-82
2022/03/27 04:46:12;;;;;;;8.40;4.45;;;;;;;;;;6286309;28;20012;-82
2022/03/27 04:49:13;;;;;;;17.23;4.60;;;;;;;;;;6285901;28;20539;-82
2022/03/27 04:52:13;;;;;;;12.07;4.28;;;;;;;;;;6286825;28;20586;-82
2022/03/27 04:55:14;;;;;;;12.40;5.43;;;;;;;;;;6268811;28;20027;-82
2022/03/27 04:58:15;;;;;;;13.70;4.43;;;;;;;;;;6263603;28;20455;-81
2022/03/27 05:01:16;;;;;;;13.25;4.28;;;;;;;;;;6287869;28;20554;-81
2022/03/27 05:04:16;;;;;;;11.07;4.22;;;;;;;;;;6271037;28;20025;-81
2022/03/27 05:07:16;;;;;;;7.35;3.40;;;;;;;;;;6285393;28;20523;-81
2022/03/27 05:10:16;;;;;;;10.32;4.03;;;;;;;;;;6257332;28;20381;-81
2022/03/27 05:13:18;;;;;;;28.95;13.88;;;;;;;;;;6289588;28;20357;-81
2022/03/27 05:16:19;;;;;;;16.58;7.35;;;;;;;;;;6265864;28;20111;-81
2022/03/27 05:19:19;;;;;;;20.33;9.25;;;;;;;;;;6287835;28;20028;-81
2022/03/27 05:22:19;;;;;;;26.35;13.05;;;;;;;;;;6287113;28;20020;-81
2022/03/27 05:25:20;;;;;;;43.53;20.27;;;;;;;;;;6282332;28;20017;-81
2022/03/27 05:28:20;;;;;;;27.48;13.15;;;;;;;;;;6263897;28;20333;-81
2022/03/27 05:31:21;;;;;;;21.27;9.20;;;;;;;;;;6269492;28;21520;-82
2022/03/27 05:34:21;;;;;;;18.95;9.13;;;;;;;;;;6281451;28;20129;-82
2022/03/27 05:37:21;;;;;;;25.30;10.90;;;;;;;;;;6284881;28;20070;-82
2022/03/27 05:40:22;;;;;;;18.30;10.38;;;;;;;;;;6288188;28;20358;-82
2022/03/27 05:43:22;;;;;;;30.33;10.30;;;;;;;;;;6277298;28;20052;-83
2022/03/27 05:46:22;;;;;;;46.13;21.93;;;;;;;;;;6268098;28;20052;-83
2022/03/27 05:49:23;;;;;;;30.98;17.33;;;;;;;;;;6285439;28;20278;-83
2022/03/27 05:52:23;;;;;;;28.80;15.70;;;;;;;;;;6292323;28;20024;-83
2022/03/27 05:55:25;;;;;;;29.05;15.27;;;;;;;;;;6264265;28;20270;-82
2022/03/27 05:58:25;;;;;;;28.60;14.20;;;;;;;;;;6289500;28;20099;-83
2022/03/27 06:01:26;;;;;;;29.55;13.90;;;;;;;;;;6288066;28;20110;-82
2022/03/27 06:04:26;;;;;;;33.88;16.73;;;;;;;;;;6287137;28;20387;-82
2022/03/27 06:07:27;;;;;;;38.40;19.00;;;;;;;;;;6271212;28;20082;-82
2022/03/27 06:10:31;;;;;;;31.88;17.17;;;;;;;;;;6291396;28;20279;-83
2022/03/27 06:13:31;;;;;;;30.77;17.48;;;;;;;;;;6276520;28;20135;-83
2022/03/27 06:16:31;;;;;;;25.00;13.57;;;;;;;;;;6293188;28;20024;-83
2022/03/27 06:19:31;;;;;;;23.50;12.05;;;;;;;;;;6271812;28;20275;-83
2022/03/27 06:22:32;;;;;;;22.13;10.30;;;;;;;;;;6271726;28;20394;-83
2022/03/27 06:25:33;;;;;;;21.25;10.10;;;;;;;;;;6273719;28;20615;-83
2022/03/27 06:28:33;;;;;;;15.13;7.88;;;;;;;;;;6272781;28;20082;-83
2022/03/27 06:31:33;;;;;;;28.13;11.65;;;;;;;;;;6290107;28;20275;-83
2022/03/27 06:34:33;;;;;;;21.33;10.63;;;;;;;;;;6289795;28;20081;-83
2022/03/27 06:37:34;;;;;;;8.35;3.83;;;;;;;;;;6277856;28;20275;-82
2022/03/27 06:40:34;;;;;;;10.20;4.28;;;;;;;;;;6258623;28;20017;-82
2022/03/27 06:43:36;;;;;;;16.20;6.20;;;;;;;;;;6277281;28;20020;-82
2022/03/27 06:46:36;;;;;;;9.77;4.18;;;;;;;;;;6278274;28;20852;-81
2022/03/27 06:49:36;;;;;;;12.60;3.20;;;;;;;;;;6277970;28;20119;-81
2022/03/27 06:52:37;;;;;;;13.53;4.60;;;;;;;;;;6278177;28;20027;-82
2022/03/27 06:55:37;;;;;;;10.23;4.45;;;;;;;;;;6267422;28;20271;-82
2022/03/27 06:58:37;;;;;;;7.45;2.95;;;;;;;;;;6287576;28;20038;-83
2022/03/27 07:04:57;;;;;;;10.35;4.30;;;;;;;;;;6296043;28;20618;-83
2022/03/27 07:07:58;;;;;;;7.25;3.70;;;;;;;;;;6272932;28;20028;-83
2022/03/27 07:10:58;;;;;;;4.60;2.03;;;;;;;;;;6283811;28;20056;-83
2022/03/27 07:13:58;;;;;;;8.63;2.97;;;;;;;;;;6263268;28;20048;-83
2022/03/27 07:16:58;;;;;;;6.35;2.15;;;;;;;;;;6277282;28;20298;-83
2022/03/27 07:19:58;;;;;;;6.57;2.13;;;;;;;;;;6289799;28;20459;-83
2022/03/27 07:23:00;;;;;;;6.93;2.30;;;;;;;;;;6269807;28;20293;-82
2022/03/27 07:26:01;;;;;;;5.07;1.73;;;;;;;;;;6284740;28;20255;-82
2022/03/27 07:29:01;;;;;;;5.95;2.00;;;;;;;;;;6285998;28;20059;-82
2022/03/27 07:32:02;;;;;;;8.27;2.70;;;;;;;;;;6287554;28;20026;-82
2022/03/27 07:35:02;;;;;;;6.30;2.50;;;;;;;;;;6269444;28;20024;-83
2022/03/27 07:38:03;;;;;;;7.95;2.92;;;;;;;;;;6270799;28;20403;-83
2022/03/27 07:41:04;;;;;;;7.90;3.03;;;;;;;;;;6287395;28;20701;-83
2022/03/27 07:44:04;;;;;;;4.97;2.30;;;;;;;;;;6279404;28;20407;-83
2022/03/27 07:47:05;;;;;;;4.63;1.67;;;;;;;;;;6261861;28;20383;-83
2022/03/27 07:50:06;;;;;;;7.25;1.98;;;;;;;;;;6284298;28;20013;-83
2022/03/27 07:53:06;;;;;;;8.65;2.28;;;;;;;;;;6294027;28;20099;-83
2022/03/27 07:56:07;;;;;;;5.22;1.73;;;;;;;;;;6290101;28;20017;-83
2022/03/27 07:59:07;;;;;;;7.07;2.00;;;;;;;;;;6283262;28;20498;-83
2022/03/27 08:02:08;;;;;;;4.90;1.77;;;;;;;;;;6296025;28;20907;-84
2022/03/27 08:05:08;;;;;;;5.63;2.15;;;;;;;;;;6295362;28;20023;-83
2022/03/27 08:08:08;;;;;;;6.43;2.33;;;;;;;;;;6284622;28;20025;-84
2022/03/27 08:11:09;;;;;;;5.50;2.07;;;;;;;;;;6289315;28;20129;-83
2022/03/27 08:14:10;;;;;;;5.05;1.73;;;;;;;;;;6273488;28;20385;-83
2022/03/27 08:17:11;;;;;;;7.47;2.37;;;;;;;;;;6288743;28;20391;-83
2022/03/27 08:20:11;;;;;;;4.93;1.93;;;;;;;;;;6267403;28;20049;-83
2022/03/27 08:23:12;;;;;;;5.93;2.50;;;;;;;;;;6283115;28;20016;-83
2022/03/27 08:29:44;;;;;;;7.00;3.97;;;;;;;;;;6293302;28;20028;-83
2022/03/27 08:32:44;;;;;;;7.80;2.50;;;;;;;;;;6275876;28;20024;-83
2022/03/27 08:35:45;;;;;;;3.55;1.05;;;;;;;;;;6288984;28;20107;-83
2022/03/27 08:38:45;;;;;;;5.05;1.80;;;;;;;;;;6264775;28;20289;-83
2022/03/27 08:41:46;;;;;;;11.13;2.90;;;;;;;;;;6265903;28;20017;-83
2022/03/27 08:44:47;;;;;;;6.40;2.13;;;;;;;;;;6287447;28;20055;-83
2022/03/27 08:47:47;;;;;;;5.70;2.30;;;;;;;;;;6258998;28;20028;-83
2022/03/27 08:50:51;;;;;;;6.10;2.80;;;;;;;;;;6288312;28;20013;-83
2022/03/27 08:53:56;;;;;;;7.22;2.97;;;;;;;;;;6285396;28;20012;-83
2022/03/27 08:57:20;;;;;;;5.00;2.55;;;;;;;;;;6288211;28;20020;-83
2022/03/27 09:00:24;;;;;;;8.68;2.35;;;;;;;;;;6231862;28;20087;-84
2022/03/27 09:03:24;;;;;;;6.20;2.78;;;;;;;;;;6267952;28;20008;-84
2022/03/27 09:06:25;;;;;;;7.95;2.25;;;;;;;;;;6279578;28;20482;-83
2022/03/27 09:09:25;;;;;;;5.65;2.40;;;;;;;;;;6259721;28;20395;-84
2022/03/27 09:12:26;;;;;;;6.57;2.17;;;;;;;;;;6255914;28;20036;-83
2022/03/27 09:15:26;;;;;;;5.68;1.80;;;;;;;;;;6268312;28;20576;-83
2022/03/27 09:18:41;;;;;;;6.50;2.13;;;;;;;;;;6265539;28;20028;-83
2022/03/27 09:21:50;;;;;;;11.00;3.63;;;;;;;;;;6275692;28;20648;-83
2022/03/27 09:24:57;;;;;;;22.63;5.75;;;;;;;;;;6283086;28;20107;-83
2022/03/27 09:27:58;;;;;;;9.75;4.65;;;;;;;;;;6268996;28;20019;-83
2022/03/27 09:31:00;;;;;;;19.88;6.85;;;;;;;;;;6269507;28;20017;-83
2022/03/27 09:34:01;;;;;;;15.35;3.50;;;;;;;;;;6278676;28;20447;-83
2022/03/27 09:37:01;;;;;;;12.00;4.10;;;;;;;;;;6267287;28;20024;-82
2022/03/27 09:40:02;;;;;;;15.53;3.87;;;;;;;;;;6262808;28;20116;-83
2022/03/27 09:43:10;;;;;;;11.90;3.72;;;;;;;;;;6284755;28;20771;-83
2022/03/27 09:46:10;;;;;;;14.05;3.35;;;;;;;;;;6291701;28;20013;-83
2022/03/27 09:49:11;;;;;;;13.07;4.03;;;;;;;;;;6271418;28;20017;-83
2022/03/27 09:52:12;;;;;;;8.67;3.63;;;;;;;;;;6269846;28;20013;-83
2022/03/27 09:55:16;;;;;;;13.70;3.38;;;;;;;;;;6264114;28;20274;-83
2022/03/27 09:58:16;;;;;;;8.10;2.78;;;;;;;;;;6283983;28;20028;-82
2022/03/27 10:01:20;;;;;;;11.75;4.25;;;;;;;;;;6267110;28;20083;-82
2022/03/27 10:04:20;;;;;;;11.18;3.75;;;;;;;;;;6281246;28;20033;-83
2022/03/27 10:07:22;;;;;;;13.48;4.20;;;;;;;;;;6280328;28;20028;-83
2022/03/27 10:10:23;;;;;;;11.93;4.32;;;;;;;;;;6282183;28;20040;-82
2022/03/27 10:13:27;;;;;;;10.97;4.87;;;;;;;;;;6282157;28;20035;-82
2022/03/27 10:16:28;;;;;;;7.55;2.97;;;;;;;;;;6279784;28;20354;-82
2022/03/27 10:19:32;;;;;;;15.07;5.75;;;;;;;;;;6269648;28;20024;-83
2022/03/27 10:22:32;;;;;;;10.40;4.68;;;;;;;;;;6286161;28;20028;-83
2022/03/27 10:25:45;;;;;;;14.57;4.43;;;;;;;;;;6264774;28;20052;-83
2022/03/27 10:28:48;;;;;;;13.52;3.70;;;;;;;;;;6285022;28;20035;-84
2022/03/27 10:31:48;;;;;;;10.70;4.85;;;;;;;;;;6285127;28;20024;-83
2022/03/27 10:34:54;;;;;;;14.35;6.10;;;;;;;;;;6282861;28;20380;-83
2022/03/27 10:38:13;;;;;;;16.23;5.47;;;;;;;;;;6276517;28;20051;-83
2022/03/27 10:41:20;;;;;;;13.60;4.32;;;;;;;;;;6271887;28;20411;-83
2022/03/27 10:44:26;;;;;;;12.85;4.88;;;;;;;;;;6266103;28;20013;-83
2022/03/27 10:47:28;;;;;;;8.70;3.33;;;;;;;;;;6278273;28;20035;-83
2022/03/27 10:50:29;;;;;;;10.07;4.38;;;;;;;;;;6268547;28;20021;-84
2022/03/27 10:53:29;;;;;;;12.90;4.50;;;;;;;;;;6292771;28;20368;-84
2022/03/27 10:56:35;;;;;;;9.18;3.92;;;;;;;;;;6293498;28;20403;-84
2022/03/27 10:59:42;;;;;;;12.68;4.97;;;;;;;;;;6271169;28;20534;-83
2022/03/27 11:02:53;;;;;;;13.10;3.97;;;;;;;;;;6275181;28;20050;-83
2022/03/27 11:05:59;;;;;;;8.75;3.60;;;;;;;;;;6269764;28;20816;-83
2022/03/27 11:09:02;;;;;;;10.38;3.72;;;;;;;;;;6273963;28;20017;-83
2022/03/27 11:12:04;;;;;;;13.85;4.38;;;;;;;;;;6290643;28;20037;-84
2022/03/27 11:15:05;;;;;;;11.68;3.88;;;;;;;;;;6272990;28;20487;-83
2022/03/27 11:18:10;;;;;;;11.05;3.80;;;;;;;;;;6273623;28;20023;-84
2022/03/27 11:21:11;;;;;;;15.32;5.05;;;;;;;;;;6288998;28;20492;-84
2022/03/27 11:24:11;;;;;;;17.73;5.43;;;;;;;;;;6285505;28;20020;-83
2022/03/27 11:27:31;;;;;;;10.17;5.03;;;;;;;;;;6285544;28;20078;-83
2022/03/27 11:30:36;;;;;;;13.20;4.63;;;;;;;;;;6283386;28;20017;-83
2022/03/27 11:33:37;;;;;;;15.40;4.45;;;;;;;;;;6278939;28;20029;-83
2022/03/27 11:36:39;;;;;;;13.57;3.67;;;;;;;;;;6288493;28;20016;-85
2022/03/27 11:39:40;;;;;;;11.98;4.05;;;;;;;;;;6271943;28;20030;-84
2022/03/27 11:42:40;;;;;;;10.10;3.70;;;;;;;;;;6282702;28;20201;-84
2022/03/27 11:45:41;;;;;;;11.40;4.38;;;;;;;;;;6269039;28;20099;-84
2022/03/27 11:48:42;;;;;;;13.87;4.73;;;;;;;;;;6266388;28;20323;-83
2022/03/27 11:51:42;;;;;;;10.10;3.40;;;;;;;;;;6287106;28;20013;-84
2022/03/27 11:54:42;;;;;;;10.45;3.90;;;;;;;;;;6287980;28;20096;-84
2022/03/27 11:57:51;;;;;;;11.77;4.07;;;;;;;;;;6265933;28;20024;-83
2022/03/27 12:00:51;;;;;;;11.32;4.68;;;;;;;;;;6284515;28;20028;-84
2022/03/27 12:03:56;;;;;;;12.57;3.73;;;;;;;;;;6284210;28;20557;-83
2022/03/27 12:06:57;;;;;;;13.18;3.45;;;;;;;;;;6278656;28;20682;-83
2022/03/27 12:09:58;;;;;;;13.73;4.35;;;;;;;;;;6284310;28;20012;-84
2022/03/27 12:12:59;;;;;;;10.87;4.00;;;;;;;;;;6270893;28;20027;-84
2022/03/27 12:16:00;;;;;;;10.40;4.05;;;;;;;;;;6288836;28;20024;-84
2022/03/27 12:19:11;;;;;;;9.88;3.20;;;;;;;;;;6274652;28;20032;-84
2022/03/27 12:22:12;;;;;;;12.25;4.10;;;;;;;;;;6273383;28;20023;-84
2022/03/27 12:25:15;;;;;;;12.00;4.50;;;;;;;;;;6274644;28;20044;-84
2022/03/27 12:31:34;;;;;;;12.82;4.90;;;;;;;;;;6290199;28;20028;-84
2022/03/27 12:34:40;;;;;;;9.27;3.08;;;;;;;;;;6272832;28;20031;-85
2022/03/27 12:37:43;;;;;;;13.00;3.15;;;;;;;;;;6293735;28;20096;-84
2022/03/27 12:40:44;;;;;;;12.93;3.95;;;;;;;;;;6269198;28;20032;-84
2022/03/27 12:43:58;;;;;;;21.33;5.15;;;;;;;;;;6286710;28;20385;-84
2022/03/27 12:46:59;;;;;;;10.35;4.28;;;;;;;;;;6267984;28;20044;-84
2022/03/27 12:49:59;;;;;;;11.27;4.73;;;;;;;;;;6286179;28;20380;-84
2022/03/27 12:53:00;;;;;;;11.05;4.18;;;;;;;;;;6267791;28;20476;-84
2022/03/27 12:56:00;;;;;;;18.55;6.85;;;;;;;;;;6285118;28;20585;-84
2022/03/27 12:59:19;;;;;;;15.57;4.40;;;;;;;;;;6274868;28;20043;-84
2022/03/27 13:02:26;;;;;;;11.27;3.58;;;;;;;;;;6272735;28;20293;-84
2022/03/27 13:05:27;;;;;;;16.17;6.45;;;;;;;;;;6290633;28;20021;-84
2022/03/27 13:08:28;;;;;;;9.60;3.77;;;;;;;;;;6292159;28;20020;-83
2022/03/27 13:11:28;;;;;;;11.50;3.75;;;;;;;;;;6277573;28;20044;-83
2022/03/27 13:14:29;;;;;;;10.37;4.17;;;;;;;;;;6277231;28;20084;-83
2022/03/27 13:17:29;;;;;;;10.47;3.67;;;;;;;;;;6292289;28;20422;-83
2022/03/27 13:20:30;;;;;;;17.37;5.60;;;;;;;;;;6267791;28;20060;-83
2022/03/27 13:23:31;;;;;;;13.98;5.55;;;;;;;;;;6274319;28;20580;-83
2022/03/27 13:26:32;;;;;;;11.87;3.77;;;;;;;;;;6273619;28;20020;-83
2022/03/27 13:29:32;;;;;;;11.60;3.90;;;;;;;;;;6271907;28;20020;-83
2022/03/27 13:32:34;;;;;;;14.03;5.10;;;;;;;;;;6286321;28;20017;-83
2022/03/27 13:35:34;;;;;;;10.63;4.03;;;;;;;;;;6293006;28;20048;-83
2022/03/27 13:38:34;;;;;;;7.83;2.93;;;;;;;;;;6292721;28;20035;-83
2022/03/27 13:44:55;;;;;;;12.05;3.75;;;;;;;;;;6290662;28;20044;-83
2022/03/27 13:47:56;;;;;;;8.10;3.77;;;;;;;;;;6292897;28;20139;-83
2022/03/27 13:50:56;;;;;;;6.38;2.92;;;;;;;;;;6293407;28;20082;-83
2022/03/27 13:53:56;;;;;;;7.20;2.40;;;;;;;;;;6291520;28;20024;-83
2022/03/27 13:56:57;;;;;;;23.87;13.17;;;;;;;;;;6275088;28;20074;-83
2022/03/27 13:59:57;;;;;;;31.60;16.83;;;;;;;;;;6292550;28;20048;-83
2022/03/27 14:02:57;;;;;;;10.67;3.60;;;;;;;;;;6292834;28;20111;-83
2022/03/27 14:05:57;;;;;;;9.33;3.73;;;;;;;;;;6290252;28;20068;-83
2022/03/27 14:08:58;;;;;;;13.03;4.97;;;;;;;;;;6288776;28;20513;-83
2022/03/27 14:11:58;;;;;;;13.07;4.23;;;;;;;;;;6281168;28;20449;-83
2022/03/27 14:14:58;;;;;;;20.27;9.07;;;;;;;;;;6284146;28;20406;-83
2022/03/27 14:17:59;;;;;;;28.27;16.43;;;;;;;;;;6289388;28;20095;-83
2022/03/27 14:20:59;;;;;;;8.17;4.17;;;;;;;;;;6291652;28;20020;-83
2022/03/27 14:23:59;;;;;;;10.53;4.03;;;;;;;;;;6282258;28;20719;-83
2022/03/27 14:27:00;;;;;;;9.73;3.60;;;;;;;;;;6272615;28;20099;-83
2022/03/27 14:30:00;;;;;;;12.00;4.27;;;;;;;;;;6294098;28;20467;-83
2022/03/27 14:33:00;;;;;;;10.63;3.80;;;;;;;;;;6278772;28;20040;-82
2022/03/27 14:36:00;;;;;;;14.20;4.83;;;;;;;;;;6294248;28;20033;-83
2022/03/27 14:39:01;;;;;;;12.03;4.33;;;;;;;;;;6294113;28;20025;-83
2022/03/27 14:42:03;;;;;;;8.90;4.57;;;;;;;;;;6270415;28;20021;-84
2022/03/27 14:45:06;;;;;;;11.63;4.25;;;;;;;;;;6287014;28;20482;-83
2022/03/27 14:48:06;;;;;;;15.63;8.32;;;;;;;;;;6275622;28;20020;-84
2022/03/27 14:51:06;;;;;;;31.03;19.27;;;;;;;;;;6273260;28;20051;-83
2022/03/27 14:57:26;;;;;;;10.25;3.70;;;;;;;;;;6289611;28;20032;-83
2022/03/27 15:00:26;;;;;;;8.97;3.47;;;;;;;;;;6262941;28;20098;-83
2022/03/27 15:03:27;;;;;;;11.88;3.35;;;;;;;;;;6283126;28;20178;-84
2022/03/27 15:06:27;;;;;;;11.23;4.40;;;;;;;;;;6263854;28;20031;-84
2022/03/27 15:09:28;;;;;;;12.40;4.70;;;;;;;;;;6278187;28;20020;-83
2022/03/27 15:12:28;;;;;;;10.33;3.93;;;;;;;;;;6267818;28;20037;-83
2022/03/27 15:15:28;;;;;;;10.87;4.73;;;;;;;;;;6283142;28;20017;-83
2022/03/27 15:18:28;;;;;;;11.67;3.50;;;;;;;;;;6270848;28;20021;-83
2022/03/27 15:21:29;;;;;;;11.37;4.50;;;;;;;;;;6288449;28;20475;-83
2022/03/27 15:24:29;;;;;;;14.30;4.83;;;;;;;;;;6283690;28;20247;-83
2022/03/27 15:27:30;;;;;;;12.50;5.67;;;;;;;;;;6267956;28;20017;-83
2022/03/27 15:30:30;;;;;;;12.57;4.40;;;;;;;;;;6287702;28;20013;-83
2022/03/27 15:33:30;;;;;;;7.87;3.93;;;;;;;;;;6270872;28;20016;-83
2022/03/27 15:36:31;;;;;;;9.87;4.10;;;;;;;;;;6279338;28;20013;-83
2022/03/27 15:39:31;;;;;;;9.80;3.67;;;;;;;;;;6279126;28;20020;-83
2022/03/27 15:42:33;;;;;;;8.77;3.77;;;;;;;;;;6283179;28;20021;-82
2022/03/27 15:45:34;;;;;;;8.60;5.55;;;;;;;;;;6267086;28;20021;-83
2022/03/27 15:48:34;;;;;;;;;;;;;;;;;;6284177;28;20032;-83
2022/03/27 15:51:35;;;;;;;7.28;2.65;;;;;;;;;;6269642;28;20257;-83
2022/03/27 15:54:35;;;;;;;7.53;2.60;;;;;;;;;;6261996;28;20033;-83
2022/03/27 15:57:36;;;;;;;8.43;3.27;;;;;;;;;;6281286;28;20442;-83
2022/03/27 16:00:37;;;;;;;8.60;3.47;;;;;;;;;;6271277;28;20024;-83
2022/03/27 16:03:37;;;;;;;5.53;2.67;;;;;;;;;;6267212;28;20019;-83
2022/03/27 16:06:38;;;;;;;5.40;2.17;;;;;;;;;;6258063;28;20017;-84
2022/03/27 16:09:40;;;;;;;7.57;2.80;;;;;;;;;;6287634;28;20103;-83
2022/03/27 16:12:41;;;;;;;8.85;3.05;;;;;;;;;;6237018;28;20050;-83
2022/03/27 16:15:41;;;;;;;9.37;4.00;;;;;;;;;;6229950;28;20476;-83
2022/03/27 16:18:42;;;;;;;15.17;7.60;;;;;;;;;;6233946;28;20029;-83
2022/03/27 16:21:44;;;;;;;8.80;4.30;;;;;;;;;;6231664;28;20575;-82
2022/03/27 16:24:46;;;;;;;9.80;3.97;;;;;;;;;;6230390;28;20056;-82
2022/03/27 16:27:46;;;;;;;10.02;3.38;;;;;;;;;;6233309;28;20021;-82
2022/03/27 16:30:46;;;;;;;9.17;4.17;;;;;;;;;;6234548;28;20113;-83
2022/03/27 16:33:46;;;;;;;8.90;3.50;;;;;;;;;;6229403;28;20025;-83
2022/03/27 16:36:47;;;;;;;6.37;3.50;;;;;;;;;;6227701;28;20026;-82
2022/03/27 16:39:47;;;;;;;9.13;3.10;;;;;;;;;;6225991;28;20477;-83
2022/03/27 16:42:47;;;;;;;9.80;3.67;;;;;;;;;;6227784;28;20071;-83
2022/03/27 16:45:48;;;;;;;12.00;4.10;;;;;;;;;;6227967;28;20022;-82
2022/03/27 16:48:49;;;;;;;10.55;3.53;;;;;;;;;;6232179;28;20017;-82
2022/03/27 16:51:49;;;;;;;9.80;3.17;;;;;;;;;;6237063;28;20425;-82
2022/03/27 16:54:49;;;;;;;9.27;3.30;;;;;;;;;;6236478;28;20030;-82
2022/03/27 16:57:50;;;;;;;11.23;3.53;;;;;;;;;;6231490;28;20436;-83
2022/03/27 17:00:50;;;;;;;10.23;3.97;;;;;;;;;;6235794;28;20420;-83
2022/03/27 17:03:52;;;;;;;9.95;4.20;;;;;;;;;;6237603;28;20528;-82
2022/03/27 17:06:52;;;;;;;13.60;5.13;;;;;;;;;;6234143;28;20036;-83
2022/03/27 17:09:54;;;;;;;13.05;5.60;;;;;;;;;;6233994;28;20445;-82
2022/03/27 17:12:54;;;;;;;;;;;;;;;;;;6280246;28;20052;-82
2022/03/27 17:15:54;;;;;;;19.05;10.38;;;;;;;;;;6279537;28;19978;-83
2022/03/27 17:18:54;;;;;;;14.95;7.43;;;;;;;;;;6278636;28;20481;-82
2022/03/27 17:21:56;;;;;;;17.98;6.75;;;;;;;;;;6263129;28;20056;-82
2022/03/27 17:24:56;;;;;;;17.48;6.40;;;;;;;;;;6269845;28;20020;-83
2022/03/27 17:27:57;;;;;;;16.65;6.40;;;;;;;;;;6282228;28;20105;-82
2022/03/27 17:30:57;;;;;;;18.80;5.75;;;;;;;;;;6270818;28;20069;-82
2022/03/27 17:33:57;;;;;;;19.42;6.72;;;;;;;;;;6262367;28;20425;-82
2022/03/27 17:37:00;;;;;;;31.85;9.73;;;;;;;;;;6263656;28;20016;-82
2022/03/27 17:40:00;;;;;;;22.45;7.05;;;;;;;;;;6270208;28;20476;-82
2022/03/27 17:43:01;;;;;;;23.20;9.00;;;;;;;;;;6279545;28;20027;-82
2022/03/27 17:46:01;;;;;;;22.63;7.47;;;;;;;;;;6281279;28;20167;-82
2022/03/27 17:49:02;;;;;;;26.35;9.15;;;;;;;;;;6269517;28;20157;-82
2022/03/27 17:52:02;;;;;;;30.95;10.98;;;;;;;;;;6267305;28;20020;-82
2022/03/27 17:55:03;;;;;;;30.27;17.05;;;;;;;;;;6288230;28;20029;-82
2022/03/27 17:58:03;;;;;;;55.20;31.58;;;;;;;;;;6283213;28;20115;-82
2022/03/27 18:01:04;;;;;;;39.38;18.98;;;;;;;;;;6271389;28;20498;-82
2022/03/27 18:04:04;;;;;;;42.67;16.15;;;;;;;;;;6274394;28;20016;-82
2022/03/27 18:07:04;;;;;;;34.15;13.15;;;;;;;;;;6289148;28;20450;-82
2022/03/27 18:10:05;;;;;;;37.43;13.73;;;;;;;;;;6292913;28;20017;-82
2022/03/27 18:13:05;;;;;;;39.38;13.10;;;;;;;;;;6273302;28;20275;-83
2022/03/27 18:16:09;;;;;;;50.47;21.13;;;;;;;;;;6264598;28;20013;-82